Time;durP1;ratioP1;P1;durP2;ratioP2;P2;SDS_P1;SDS_P2;PMS_P1;PMS_P2;Temp;Humidity;BMP_temperature;BMP_pressure;BME280_temperature;BME280_humidity;BME280_pressure;Samples;Min_cycle;Max_cycle;Signal;HPM_P1;HPM_P2
2022/06/14 00:00:53;;;;;;;5.45;3.13;;;9.50;99.90;;;;;;4773901;29;20095;-67
2022/06/14 00:03:20;;;;;;;6.80;3.22;;;9.90;99.90;;;;;;4773689;29;20046;-68
2022/06/14 00:05:46;;;;;;;13.55;3.30;;;9.90;99.90;;;;;;4803534;29;20050;-67
2022/06/14 00:08:12;;;;;;;9.27;3.15;;;9.90;99.90;;;;;;4789134;29;20387;-68
2022/06/14 00:10:38;;;;;;;7.72;3.08;;;9.90;99.90;;;;;;4789008;29;20062;-69
2022/06/14 00:13:05;;;;;;;6.25;2.70;;;9.90;99.90;;;;;;4788944;29;20050;-67
2022/06/14 00:15:31;;;;;;;10.23;2.67;;;9.90;99.90;;;;;;4787909;29;20054;-68
2022/06/14 00:17:56;;;;;;;8.63;3.30;;;9.90;99.90;;;;;;4788590;29;20496;-66
2022/06/14 00:20:22;;;;;;;6.85;2.90;;;9.90;99.90;;;;;;4788913;29;20134;-68
2022/06/14 00:22:48;;;;;;;9.35;3.50;;;9.90;99.90;;;;;;4788932;29;20062;-67
2022/06/14 00:25:39;;;;;;;8.18;2.80;;;9.90;99.90;;;;;;4788856;29;20345;-66
2022/06/14 00:28:10;;;;;;;8.90;3.35;;;9.90;99.90;;;;;;4803664;29;20076;-67
2022/06/14 00:30:37;;;;;;;11.90;3.60;;;9.90;99.90;;;;;;4786810;30;20051;-69
2022/06/14 00:33:03;;;;;;;8.85;2.83;;;9.90;99.90;;;;;;4801626;29;20126;-68
2022/06/14 00:35:29;;;;;;;9.88;3.03;;;9.80;99.90;;;;;;4790620;29;20104;-68
2022/06/14 00:37:56;;;;;;;6.30;3.53;;;9.80;99.90;;;;;;4788549;29;20073;-67
2022/06/14 00:40:25;;;;;;;7.72;3.80;;;9.70;99.90;;;;;;4775288;29;20055;-69
2022/06/14 00:42:51;;;;;;;10.98;3.78;;;9.70;99.90;;;;;;4789096;29;20059;-68
2022/06/14 00:45:17;;;;;;;11.02;3.65;;;9.70;99.90;;;;;;4788212;29;20469;-68
2022/06/14 00:47:50;;;;;;;8.75;3.22;;;9.60;99.90;;;;;;4788478;29;20051;-66
2022/06/14 00:50:26;;;;;;;7.63;2.85;;;9.70;99.90;;;;;;4805785;29;20055;-68
2022/06/14 00:53:05;;;;;;;10.60;3.97;;;9.60;99.90;;;;;;4788786;29;20066;-67
2022/06/14 00:55:42;;;;;;;11.50;3.38;;;9.60;99.90;;;;;;4804700;29;20054;-68
2022/06/14 00:58:12;;;;;;;5.38;2.78;;;9.60;99.90;;;;;;4789213;29;20051;-67
2022/06/14 01:00:46;;;;;;;8.95;3.72;;;9.60;99.90;;;;;;4774396;29;20116;-66
2022/06/14 01:03:25;;;;;;;6.13;3.78;;;9.60;99.90;;;;;;4788479;29;20088;-69
2022/06/14 01:06:08;;;;;;;8.57;3.42;;;9.50;99.90;;;;;;4789261;29;20133;-68
2022/06/14 01:08:57;;;;;;;8.50;3.53;;;9.50;99.90;;;;;;4773220;29;20472;-66
2022/06/14 01:11:30;;;;;;;6.05;2.90;;;9.50;99.90;;;;;;4804886;29;20058;-68
2022/06/14 01:13:56;;;;;;;10.98;3.30;;;9.50;99.90;;;;;;4788974;29;20054;-69
2022/06/14 01:16:21;;;;;;;6.38;3.10;;;9.50;99.90;;;;;;4791347;29;20135;-70
2022/06/14 01:18:47;;;;;;;7.00;3.42;;;9.50;99.90;;;;;;4793543;29;20135;-68
2022/06/14 01:21:15;;;;;;;6.03;3.63;;;9.50;99.90;;;;;;4792686;29;20067;-68
2022/06/14 01:23:41;;;;;;;5.60;3.00;;;9.50;99.90;;;;;;4808762;29;20434;-69
2022/06/14 01:26:14;;;;;;;6.05;2.80;;;9.50;99.90;;;;;;4792592;29;20058;-67
2022/06/14 01:28:44;;;;;;;7.25;2.70;;;9.40;99.90;;;;;;4792427;29;20423;-68
2022/06/14 01:31:10;;;;;;;7.43;3.35;;;9.40;99.90;;;;;;4791661;29;20106;-69
2022/06/14 01:33:41;;;;;;;9.43;3.28;;;9.40;99.90;;;;;;4792367;29;20092;-69
2022/06/14 01:36:12;;;;;;;9.82;3.40;;;9.30;99.90;;;;;;4808745;29;20097;-70
2022/06/14 01:38:41;;;;;;;7.82;3.50;;;9.30;99.90;;;;;;4791489;29;20099;-68
2022/06/14 01:41:49;;;;;;;11.00;3.67;;;9.30;99.90;;;;;;4792366;29;20047;-69
2022/06/14 01:44:45;;;;;;;7.22;3.20;;;9.30;99.90;;;;;;4808527;29;20481;-70
2022/06/14 01:47:27;;;;;;;8.75;3.20;;;9.30;99.90;;;;;;4808038;29;20055;-67
2022/06/14 01:53:41;;;;;;;10.63;3.20;;;9.20;99.90;;;;;;4807115;29;20482;-68
2022/06/14 01:56:31;;;;;;;9.43;3.63;;;9.20;99.90;;;;;;4791288;29;20492;-69
2022/06/14 01:59:07;;;;;;;6.20;3.42;;;9.10;99.90;;;;;;4792807;29;20062;-68
2022/06/14 02:01:43;;;;;;;7.75;3.33;;;9.10;99.90;;;;;;4805550;29;20389;-68
2022/06/14 02:04:45;;;;;;;4.53;3.28;;;9.10;99.90;;;;;;4789082;30;20047;-68
2022/06/14 02:07:35;;;;;;;10.55;3.80;;;9.00;99.90;;;;;;4762481;30;20086;-67
2022/06/14 02:10:24;;;;;;;6.53;3.22;;;9.00;99.90;;;;;;4773989;30;20054;-69
2022/06/14 02:13:28;;;;;;;7.15;3.67;;;8.90;99.90;;;;;;4788570;30;20112;-70
2022/06/14 02:16:05;;;;;;;9.63;3.50;;;8.90;99.90;;;;;;4734076;30;20413;-68
2022/06/14 02:18:45;;;;;;;7.78;3.42;;;8.90;99.90;;;;;;4784736;29;20130;-69
2022/06/14 02:21:16;;;;;;;8.20;3.63;;;8.90;99.90;;;;;;4791947;29;20125;-69
2022/06/14 02:23:47;;;;;;;7.10;3.33;;;8.90;99.90;;;;;;4791528;29;20094;-69
2022/06/14 02:26:22;;;;;;;13.40;3.95;;;8.80;99.90;;;;;;4791051;29;20066;-70
2022/06/14 02:28:53;;;;;;;14.27;4.70;;;8.80;99.90;;;;;;4791747;29;20053;-67
2022/06/14 02:31:30;;;;;;;5.65;3.50;;;8.80;99.90;;;;;;4806661;29;20047;-68
2022/06/14 02:34:03;;;;;;;10.75;4.18;;;8.80;99.90;;;;;;4790163;29;20058;-69
2022/06/14 02:36:33;;;;;;;7.00;3.92;;;8.80;99.90;;;;;;4775656;29;20192;-70
2022/06/14 02:39:06;;;;;;;8.63;3.72;;;8.80;99.90;;;;;;4790646;29;20078;-70
2022/06/14 02:42:01;;;;;;;11.40;4.43;;;9.00;99.90;;;;;;4791479;29;20393;-70
2022/06/14 02:44:36;;;;;;;7.13;3.90;;;8.80;99.90;;;;;;4791502;29;20061;-68
2022/06/14 02:47:31;;;;;;;6.90;3.70;;;8.80;99.90;;;;;;4789929;29;20063;-70
2022/06/14 02:50:07;;;;;;;5.75;3.55;;;8.70;99.90;;;;;;4807194;29;20051;-68
2022/06/14 02:52:39;;;;;;;4.90;3.30;;;8.80;99.90;;;;;;4791458;29;20113;-70
2022/06/14 02:55:17;;;;;;;7.20;4.22;;;8.80;99.90;;;;;;4791174;29;20122;-70
2022/06/14 02:57:52;;;;;;;9.55;3.63;;;8.80;99.90;;;;;;4790914;29;20425;-70
2022/06/14 03:00:30;;;;;;;8.85;3.78;;;8.80;99.90;;;;;;4790777;29;20125;-68
2022/06/14 03:03:31;;;;;;;7.22;3.30;;;8.80;99.90;;;;;;4789532;29;20153;-69
2022/06/14 03:06:14;;;;;;;8.38;3.40;;;8.80;99.90;;;;;;4753385;29;20496;-68
2022/06/14 03:09:05;;;;;;;9.27;3.92;;;8.80;99.90;;;;;;4791009;29;20070;-69
2022/06/14 03:11:46;;;;;;;8.85;4.47;;;8.80;99.90;;;;;;4790176;29;20062;-68
2022/06/14 03:14:20;;;;;;;9.15;3.75;;;8.90;99.90;;;;;;4775949;29;20510;-69
2022/06/14 03:17:08;;;;;;;8.40;3.65;;;8.90;99.90;;;;;;4789627;29;20084;-69
2022/06/14 03:19:47;;;;;;;7.55;4.35;;;8.90;99.90;;;;;;4790860;29;20062;-67
2022/06/14 03:22:22;;;;;;;9.77;4.13;;;8.90;99.90;;;;;;4790702;29;20079;-68
2022/06/14 03:25:20;;;;;;;8.55;3.33;;;8.90;99.90;;;;;;4789889;29;20117;-66
2022/06/14 03:27:57;;;;;;;8.63;3.75;;;8.90;99.90;;;;;;4790739;29;20059;-69
2022/06/14 03:30:37;;;;;;;8.50;3.67;;;9.00;99.90;;;;;;4790276;29;20058;-67
2022/06/14 03:33:23;;;;;;;5.95;3.47;;;9.00;99.90;;;;;;4790085;29;20519;-68
2022/06/14 03:35:51;;;;;;;7.50;4.15;;;9.00;99.90;;;;;;4790033;29;20054;-68
2022/06/14 03:38:29;;;;;;;4.95;2.97;;;9.00;99.90;;;;;;4790514;29;20055;-70
2022/06/14 03:40:55;;;;;;;8.75;4.28;;;9.10;99.90;;;;;;4789244;29;20054;-69
2022/06/14 03:43:21;;;;;;;7.20;3.60;;;9.10;99.90;;;;;;4790488;29;20473;-70
2022/06/14 03:46:25;;;;;;;8.70;4.38;;;9.10;99.90;;;;;;4788733;29;20141;-69
2022/06/14 03:48:59;;;;;;;5.35;3.78;;;9.20;99.90;;;;;;4789471;29;20437;-66
2022/06/14 03:51:47;;;;;;;6.78;4.10;;;9.20;99.90;;;;;;4789913;29;20126;-68
2022/06/14 03:54:37;;;;;;;8.00;3.90;;;9.30;99.90;;;;;;4789914;29;20072;-67
2022/06/14 03:57:37;;;;;;;7.60;3.80;;;9.30;99.90;;;;;;4789857;29;20493;-67
2022/06/14 04:00:30;;;;;;;8.90;4.13;;;9.30;99.90;;;;;;4805444;29;20079;-67
2022/06/14 04:03:21;;;;;;;9.98;4.25;;;9.40;99.90;;;;;;4788705;29;20065;-70
2022/06/14 04:05:59;;;;;;;8.88;4.50;;;9.40;99.90;;;;;;4789985;29;20133;-67
2022/06/14 04:08:40;;;;;;;7.43;3.95;;;9.50;99.90;;;;;;4789709;29;20051;-68
2022/06/14 04:11:27;;;;;;;5.43;3.90;;;9.50;99.90;;;;;;4789488;29;20073;-66
2022/06/14 04:14:11;;;;;;;6.68;4.20;;;9.60;99.90;;;;;;4789998;29;20449;-66
2022/06/14 04:16:43;;;;;;;6.95;3.80;;;9.50;99.90;;;;;;4796068;29;20137;-68
2022/06/14 04:19:20;;;;;;;8.90;4.78;;;9.60;99.90;;;;;;4805567;29;20418;-68
2022/06/14 04:22:02;;;;;;;6.85;4.32;;;9.60;99.90;;;;;;4789248;29;20457;-66
2022/06/14 04:24:49;;;;;;;8.45;4.40;;;10.20;99.90;;;;;;4789857;29;20464;-68
2022/06/14 04:27:18;;;;;;;6.18;4.00;;;9.70;99.90;;;;;;4805342;29;20059;-69
2022/06/14 04:30:04;;;;;;;6.75;4.07;;;9.70;99.90;;;;;;4789742;29;20378;-67
2022/06/14 04:32:53;;;;;;;7.72;4.15;;;9.80;99.90;;;;;;4789003;29;20063;-69
2022/06/14 04:35:45;;;;;;;7.13;4.43;;;9.90;99.90;;;;;;4804400;29;20051;-67
2022/06/14 04:38:19;;;;;;;5.72;4.28;;;9.90;99.90;;;;;;4789263;29;20085;-68
2022/06/14 04:40:56;;;;;;;10.00;4.38;;;10.00;99.90;;;;;;4788565;29;20066;-68
2022/06/14 04:43:28;;;;;;;8.18;4.50;;;10.00;99.90;;;;;;4789321;29;20086;-67
2022/06/14 04:46:05;;;;;;;8.02;4.40;;;10.10;99.90;;;;;;4789131;29;20136;-70
2022/06/14 04:48:36;;;;;;;9.95;5.05;;;10.20;99.90;;;;;;4789625;29;20065;-69
2022/06/14 04:51:07;;;;;;;8.85;4.68;;;10.20;99.90;;;;;;4788589;29;20066;-67
2022/06/14 04:53:47;;;;;;;7.20;4.45;;;10.30;99.90;;;;;;4788536;29;20081;-68
2022/06/14 04:56:24;;;;;;;8.68;4.57;;;10.40;99.90;;;;;;4773363;29;20540;-69
2022/06/14 04:58:59;;;;;;;9.15;5.28;;;10.40;99.90;;;;;;4789644;29;20050;-66
2022/06/14 05:01:40;;;;;;;9.52;4.88;;;10.50;99.90;;;;;;4788959;29;20551;-68
2022/06/14 05:04:39;;;;;;;6.95;5.15;;;10.60;99.90;;;;;;4789391;29;20062;-68
2022/06/14 05:07:31;;;;;;;9.98;4.70;;;10.60;99.90;;;;;;4774261;29;20384;-70
2022/06/14 05:10:06;;;;;;;10.20;4.80;;;10.70;99.90;;;;;;4788856;29;20051;-69
2022/06/14 05:12:42;;;;;;;10.02;4.78;;;10.80;99.90;;;;;;4774078;29;20145;-69
2022/06/14 05:15:17;;;;;;;12.43;4.68;;;10.90;99.90;;;;;;4774336;29;20047;-68
2022/06/14 05:17:49;;;;;;;7.50;5.00;;;11.10;99.90;;;;;;4788615;29;20392;-69
2022/06/14 05:20:35;;;;;;;13.17;4.87;;;11.20;99.90;;;;;;4788986;29;20053;-69
2022/06/14 05:23:36;;;;;;;8.27;4.97;;;11.40;99.90;;;;;;4787379;29;20642;-70
2022/06/14 05:26:21;;;;;;;8.57;4.95;;;11.70;99.90;;;;;;4709321;30;20060;-69
2022/06/14 05:28:50;;;;;;;11.38;4.70;;;11.80;99.90;;;;;;4780105;29;20082;-68
2022/06/14 05:31:36;;;;;;;12.57;4.88;;;12.40;99.90;;;;;;4804803;29;20058;-68
2022/06/14 05:34:12;;;;;;;11.45;4.50;;;13.50;99.90;;;;;;4787744;29;20357;-69
2022/06/14 05:36:44;;;;;;;7.10;4.00;;;14.50;99.90;;;;;;4787728;29;20070;-69
2022/06/14 05:39:19;;;;;;;7.97;4.45;;;15.30;99.90;;;;;;4787988;29;20054;-68
2022/06/14 05:41:56;;;;;;;8.85;4.25;;;16.00;99.90;;;;;;4779209;29;20061;-67
2022/06/14 05:44:31;;;;;;;7.90;4.30;;;16.70;99.90;;;;;;4785532;29;20066;-68
2022/06/14 05:47:01;;;;;;;12.88;4.60;;;17.20;99.90;;;;;;4771823;29;20370;-68
2022/06/14 05:49:36;;;;;;;10.45;4.10;;;17.60;99.90;;;;;;4780158;29;20563;-69
2022/06/14 05:52:20;;;;;;;11.15;4.10;;;18.00;99.90;;;;;;4764321;29;21072;-68
2022/06/14 05:54:49;;;;;;;9.35;4.50;;;18.20;99.90;;;;;;4799222;29;20430;-68
2022/06/14 05:57:57;;;;;;;10.43;4.30;;;18.50;99.90;;;;;;4783388;29;20046;-72
2022/06/14 06:00:50;;;;;;;10.95;4.18;;;18.70;99.90;;;;;;4772183;29;20035;-70
2022/06/14 06:03:20;;;;;;;8.32;3.83;;;19.20;99.90;;;;;;4787729;29;20492;-69
2022/06/14 06:06:10;;;;;;;7.88;3.72;;;19.40;99.90;;;;;;4784229;29;20042;-70
2022/06/14 06:08:41;;;;;;;10.15;3.97;;;19.60;99.90;;;;;;4807449;29;20062;-69
2022/06/14 06:11:11;;;;;;;8.88;3.60;;;19.70;99.90;;;;;;4773363;30;20039;-71
2022/06/14 06:13:42;;;;;;;9.32;3.53;;;19.80;99.90;;;;;;4802298;29;20054;-72
2022/06/14 06:16:25;;;;;;;8.65;3.33;;;20.00;99.90;;;;;;4790737;29;20492;-71
2022/06/14 06:19:00;;;;;;;6.18;3.10;;;20.00;99.90;;;;;;4792115;29;20055;-68
2022/06/14 06:21:45;;;;;;;7.72;3.17;;;20.40;99.90;;;;;;4790113;29;20055;-70
2022/06/14 06:24:25;;;;;;;6.47;2.78;;;20.50;99.90;;;;;;4806648;29;20047;-69
2022/06/14 06:27:02;;;;;;;8.68;3.13;;;20.60;99.90;;;;;;4807829;29;20107;-70
2022/06/14 06:29:39;;;;;;;10.32;3.13;;;20.80;99.90;;;;;;4776300;29;20054;-69
2022/06/14 06:32:07;;;;;;;6.82;3.03;;;20.70;97.10;;;;;;4791199;29;20378;-70
2022/06/14 06:34:33;;;;;;;7.22;3.30;;;20.50;99.90;;;;;;4790209;29;20134;-69
2022/06/14 06:37:21;;;;;;;8.25;2.95;;;20.50;99.90;;;;;;4806111;29;20452;-70
2022/06/14 06:39:55;;;;;;;8.52;2.60;;;20.40;99.90;;;;;;4790063;30;20090;-69
2022/06/14 06:42:45;;;;;;;6.85;2.55;;;20.00;99.90;;;;;;4790093;29;20054;-70
2022/06/14 06:45:24;;;;;;;6.45;2.55;;;19.40;99.90;;;;;;4791433;29;20059;-70
2022/06/14 06:48:34;;;;;;;7.15;2.55;;;18.70;99.90;;;;;;4789890;29;20496;-69
2022/06/14 06:51:45;;;;;;;8.30;3.08;;;18.30;99.90;;;;;;4796481;29;20050;-69
2022/06/14 06:55:04;;;;;;;9.00;2.97;;;17.90;99.90;;;;;;4775506;29;20069;-71
2022/06/14 06:58:33;;;;;;;7.72;2.83;;;17.60;99.90;;;;;;4789808;29;20078;-69
2022/06/14 07:01:53;;;;;;;5.43;2.20;;;17.30;99.90;;;;;;4790267;29;20053;-71
2022/06/14 07:07:16;;;;;;;10.63;2.47;;;17.10;99.90;;;;;;4787849;29;20046;-69
2022/06/14 07:09:56;;;;;;;6.20;2.55;;;17.20;99.90;;;;;;4806186;29;20103;-70
2022/06/14 07:12:30;;;;;;;6.60;2.40;;;17.20;99.90;;;;;;4805034;29;20129;-68
2022/06/14 07:15:00;;;;;;;7.75;2.00;;;17.20;99.90;;;;;;4806781;29;20042;-68
2022/06/14 07:17:41;;;;;;;5.50;2.00;;;17.30;99.90;;;;;;4789986;29;20046;-66
2022/06/14 07:20:33;;;;;;;9.32;2.33;;;17.30;99.90;;;;;;4806996;29;20152;-67
2022/06/14 07:23:10;;;;;;;8.00;2.58;;;17.40;99.90;;;;;;4806754;29;20054;-66
2022/06/14 07:25:51;;;;;;;5.90;1.60;;;17.30;99.90;;;;;;4789705;29;20062;-67
2022/06/14 07:28:27;;;;;;;5.97;1.77;;;17.30;99.90;;;;;;4807000;29;20057;-67
2022/06/14 07:30:57;;;;;;;8.32;2.10;;;17.30;99.90;;;;;;4789619;29;20119;-67
2022/06/14 07:33:25;;;;;;;5.65;1.80;;;17.40;99.90;;;;;;4806528;29;20082;-68
2022/06/14 07:35:58;;;;;;;4.65;1.80;;;17.40;99.90;;;;;;4789984;29;20384;-68
2022/06/14 07:38:37;;;;;;;5.82;1.90;;;17.50;99.90;;;;;;4805932;29;20354;-66
2022/06/14 07:41:16;;;;;;;6.45;1.90;;;17.60;99.90;;;;;;4804871;29;20059;-68
2022/06/14 07:43:59;;;;;;;4.53;1.98;;;17.60;99.90;;;;;;4806412;29;20058;-68
2022/06/14 07:46:47;;;;;;;5.18;1.95;;;17.50;99.90;;;;;;4805135;29;20499;-66
2022/06/14 07:49:21;;;;;;;8.52;2.03;;;17.60;99.90;;;;;;4805617;29;20066;-68
2022/06/14 07:51:55;;;;;;;5.15;2.55;;;17.80;99.90;;;;;;4789009;29;20107;-68
2022/06/14 07:54:35;;;;;;;4.43;2.10;;;18.00;99.90;;;;;;4804207;29;20134;-68
2022/06/14 07:57:16;;;;;;;5.57;2.10;;;18.20;99.90;;;;;;4789746;29;20062;-68
2022/06/14 07:59:51;;;;;;;6.70;2.42;;;18.20;99.90;;;;;;4806069;29;20484;-69
2022/06/14 08:02:26;;;;;;;4.85;1.92;;;18.10;99.90;;;;;;4789433;29;20469;-68
2022/06/14 08:04:57;;;;;;;6.03;2.30;;;18.10;99.90;;;;;;4790659;29;20361;-68
2022/06/14 08:07:23;;;;;;;6.15;1.80;;;18.30;99.90;;;;;;4805862;29;20137;-66
2022/06/14 08:09:59;;;;;;;5.90;1.67;;;18.50;99.90;;;;;;4790027;29;20434;-66
2022/06/14 08:12:35;;;;;;;5.00;1.85;;;18.70;99.90;;;;;;4788935;29;20055;-67
2022/06/14 08:15:14;;;;;;;4.38;1.55;;;18.40;99.90;;;;;;4789164;29;20062;-66
2022/06/14 08:17:50;;;;;;;4.75;1.98;;;18.10;99.90;;;;;;4805079;29;20480;-68
2022/06/14 08:20:24;;;;;;;4.40;1.67;;;18.00;99.90;;;;;;4799253;29;20121;-69
2022/06/14 08:22:55;;;;;;;4.63;1.70;;;17.70;99.90;;;;;;4800991;29;20050;-69
2022/06/14 08:25:29;;;;;;;4.22;1.77;;;17.70;99.90;;;;;;4778436;29;20434;-68
2022/06/14 08:28:03;;;;;;;4.18;1.80;;;17.90;99.90;;;;;;4789323;29;20050;-68
2022/06/14 08:30:55;;;;;;;4.80;1.77;;;18.20;99.90;;;;;;4808567;29;20093;-68
2022/06/14 08:33:28;;;;;;;4.72;1.50;;;18.40;99.90;;;;;;4787445;29;20057;-67
2022/06/14 08:36:00;;;;;;;6.28;1.40;;;18.20;99.90;;;;;;4789026;29;20507;-68
2022/06/14 08:38:38;;;;;;;;;;;18.10;99.90;;;;;;4785464;29;20121;-68
2022/06/14 08:41:09;;;;;;;3.42;1.45;;;17.80;99.90;;;;;;4789051;29;20208;-66
2022/06/14 08:43:42;;;;;;;4.57;1.50;;;17.50;99.90;;;;;;4804513;29;20441;-68
2022/06/14 08:46:33;;;;;;;2.85;1.35;;;17.40;99.90;;;;;;4802774;29;20304;-67
2022/06/14 08:49:27;;;;;;;7.03;1.40;;;17.30;99.90;;;;;;4788935;29;20062;-68
2022/06/14 08:52:14;;;;;;;5.75;1.63;;;17.20;99.90;;;;;;4789157;29;20107;-68
2022/06/14 08:55:13;;;;;;;4.47;1.60;;;17.30;99.90;;;;;;4804970;29;20074;-68
2022/06/14 08:58:10;;;;;;;3.38;1.55;;;17.70;99.90;;;;;;4805240;29;20051;-69
2022/06/14 09:00:42;;;;;;;3.15;1.17;;;18.10;99.90;;;;;;4787408;29;20130;-71
2022/06/14 09:03:34;;;;;;;5.95;1.63;;;18.50;99.90;;;;;;4785756;30;20530;-68
2022/06/14 09:06:11;;;;;;;3.17;1.30;;;18.60;99.90;;;;;;4786185;30;20112;-66
2022/06/14 09:08:46;;;;;;;3.00;1.50;;;18.70;99.90;;;;;;4786592;30;20138;-67
2022/06/14 09:11:49;;;;;;;4.65;1.27;;;18.60;96.10;;;;;;4797113;29;20515;-69
2022/06/14 09:14:40;;;;;;;2.70;1.63;;;18.60;99.90;;;;;;4789104;29;20133;-68
2022/06/14 09:17:48;;;;;;;2.35;1.08;;;18.60;99.90;;;;;;4788943;29;20392;-68
2022/06/14 09:20:37;;;;;;;3.78;1.15;;;18.50;99.90;;;;;;4786212;29;20054;-68
2022/06/14 09:23:27;;;;;;;3.63;1.23;;;18.60;98.80;;;;;;4788648;29;20104;-69
2022/06/14 09:25:57;;;;;;;2.97;1.27;;;18.60;97.20;;;;;;4788691;29;20065;-68
2022/06/14 09:28:55;;;;;;;3.83;1.30;;;18.70;96.20;;;;;;4789388;29;20097;-70
2022/06/14 09:31:42;;;;;;;4.38;1.38;;;19.00;93.20;;;;;;4804588;29;20070;-67
2022/06/14 09:34:39;;;;;;;3.70;1.55;;;19.40;99.90;;;;;;4788791;29;20059;-70
2022/06/14 09:37:19;;;;;;;2.75;1.23;;;19.70;82.10;;;;;;4791642;29;20093;-70
2022/06/14 09:40:06;;;;;;;3.17;1.42;;;19.80;92.70;;;;;;4792285;29;20449;-70
2022/06/14 09:43:01;;;;;;;4.22;1.58;;;19.80;85.30;;;;;;4791473;29;20058;-68
2022/06/14 09:45:59;;;;;;;5.95;1.50;;;19.70;82.10;;;;;;4806670;29;20059;-69
2022/06/14 09:48:36;;;;;;;3.55;1.65;;;19.60;74.50;;;;;;4791277;29;20054;-70
2022/06/14 09:51:27;;;;;;;7.13;1.25;;;19.50;79.10;;;;;;4791340;29;20078;-68
2022/06/14 09:54:30;;;;;;;4.72;1.33;;;19.50;75.90;;;;;;4789517;29;20111;-69
2022/06/14 09:57:01;;;;;;;2.65;1.23;;;19.50;77.30;;;;;;4790030;29;20122;-71
2022/06/14 09:59:45;;;;;;;4.82;1.30;;;19.50;76.00;;;;;;4806387;29;20054;-69
2022/06/14 10:02:16;;;;;;;3.65;1.30;;;19.50;69.80;;;;;;4805676;29;20086;-70
2022/06/14 10:04:50;;;;;;;4.63;1.30;;;19.60;88.20;;;;;;4776883;29;20126;-68
2022/06/14 10:07:51;;;;;;;3.08;1.70;;;19.60;85.20;;;;;;4789374;29;20099;-70
2022/06/14 10:10:34;;;;;;;4.40;1.23;;;19.70;78.10;;;;;;4800787;29;20051;-67
2022/06/14 10:13:05;;;;;;;4.03;1.55;;;19.70;89.00;;;;;;4798811;29;20058;-68
2022/06/14 10:16:22;;;;;;;3.78;1.42;;;19.80;92.20;;;;;;4802657;29;20059;-70
2022/06/14 10:19:06;;;;;;;2.92;1.50;;;19.90;82.10;;;;;;4797391;29;20400;-70
2022/06/14 10:21:40;;;;;;;2.90;1.50;;;19.90;90.60;;;;;;4805651;29;20081;-68
2022/06/14 10:24:17;;;;;;;3.63;1.23;;;20.00;78.50;;;;;;4791087;29;20676;-68
2022/06/14 10:29:52;;;;;;;2.42;1.30;;;20.20;70.10;;;;;;4791703;29;20082;-67
2022/06/14 10:32:48;;;;;;;2.63;1.30;;;20.40;76.30;;;;;;4790086;29;20062;-70
2022/06/14 10:35:30;;;;;;;3.70;1.40;;;20.40;71.50;;;;;;4789075;29;20404;-68
2022/06/14 10:38:37;;;;;;;2.00;1.05;;;20.30;76.10;;;;;;4806710;29;20043;-69
2022/06/14 10:41:38;;;;;;;2.13;1.25;;;20.30;84.40;;;;;;4687976;30;20061;-68
2022/06/14 10:44:24;;;;;;;3.78;1.27;;;20.30;79.40;;;;;;4790874;29;20065;-68
2022/06/14 10:47:09;;;;;;;3.78;1.48;;;20.40;77.00;;;;;;4802413;29;20087;-68
2022/06/14 10:49:34;;;;;;;2.90;1.42;;;20.80;75.00;;;;;;4788590;29;20054;-70
2022/06/14 10:52:19;;;;;;;2.75;1.10;;;20.90;73.00;;;;;;4807330;29;20075;-69
2022/06/14 10:55:08;;;;;;;2.13;1.40;;;21.00;68.90;;;;;;4790925;29;20097;-70
2022/06/14 10:58:02;;;;;;;2.50;1.13;;;21.00;66.90;;;;;;4791178;29;20341;-70
2022/06/14 11:00:34;;;;;;;1.67;1.10;;;21.20;64.80;;;;;;4789498;29;20078;-67
2022/06/14 11:03:21;;;;;;;3.75;1.85;;;21.30;66.10;;;;;;4790548;29;20055;-69
2022/06/14 11:05:53;;;;;;;2.92;1.20;;;21.40;65.50;;;;;;4806865;29;20100;-69
2022/06/14 11:08:39;;;;;;;2.33;1.15;;;21.60;64.10;;;;;;4789778;29;20082;-69
2022/06/14 11:11:27;;;;;;;3.13;1.42;;;21.60;63.30;;;;;;4775443;29;20454;-67
2022/06/14 11:14:27;;;;;;;3.53;1.65;;;21.50;64.80;;;;;;4807017;29;20395;-69
2022/06/14 11:17:06;;;;;;;2.97;1.38;;;21.20;63.40;;;;;;4787925;29;20122;-70
2022/06/14 11:19:43;;;;;;;2.55;1.15;;;21.10;65.00;;;;;;4805157;29;20187;-68
2022/06/14 11:22:11;;;;;;;3.33;1.17;;;21.00;65.00;;;;;;4790442;29;20392;-68
2022/06/14 11:24:57;;;;;;;3.78;1.30;;;20.80;67.50;;;;;;4790131;29;20050;-70
2022/06/14 11:27:38;;;;;;;2.47;1.23;;;20.70;67.50;;;;;;4790220;29;20069;-70
2022/06/14 11:30:07;;;;;;;2.87;1.00;;;20.60;68.50;;;;;;4804092;29;20054;-68
2022/06/14 11:32:35;;;;;;;2.42;1.20;;;20.60;71.60;;;;;;4788505;29;20127;-69
2022/06/14 11:35:36;;;;;;;3.75;1.75;;;20.60;72.40;;;;;;4789249;29;20468;-69
2022/06/14 11:38:11;;;;;;;5.55;1.52;;;20.60;72.40;;;;;;4762899;29;20480;-69
2022/06/14 11:40:46;;;;;;;2.65;1.20;;;20.70;70.90;;;;;;4789725;29;20135;-70
2022/06/14 11:43:32;;;;;;;2.17;1.20;;;20.70;69.90;;;;;;4788297;29;20504;-69
2022/06/14 11:46:33;;;;;;;4.80;1.55;;;20.90;68.40;;;;;;4789242;29;20153;-70
2022/06/14 11:49:06;;;;;;;3.83;1.17;;;20.90;68.40;;;;;;4772331;29;20075;-70
2022/06/14 11:52:05;;;;;;;2.40;1.00;;;20.80;66.90;;;;;;4780024;29;20335;-68
2022/06/14 11:55:06;;;;;;;3.28;1.48;;;20.40;66.00;;;;;;4806267;29;20342;-70
2022/06/14 11:57:41;;;;;;;3.20;1.23;;;20.00;66.40;;;;;;4796345;29;20489;-71
2022/06/14 12:00:22;;;;;;;1.75;0.98;;;19.80;70.80;;;;;;4797598;29;20123;-70
2022/06/14 12:03:12;;;;;;;2.15;1.10;;;19.90;73.50;;;;;;4783533;29;20051;-67
2022/06/14 12:05:50;;;;;;;5.00;1.40;;;20.10;73.50;;;;;;4774493;29;20063;-67
2022/06/14 12:08:46;;;;;;;3.13;1.40;;;20.50;70.40;;;;;;4804587;29;20051;-69
2022/06/14 12:11:26;;;;;;;1.90;1.20;;;20.60;68.40;;;;;;4789322;29;20397;-68
2022/06/14 12:14:12;;;;;;;3.47;1.20;;;20.70;67.90;;;;;;4803646;29;20134;-70
2022/06/14 12:16:45;;;;;;;2.38;1.30;;;20.70;66.60;;;;;;4751607;29;20066;-69
2022/06/14 12:19:19;;;;;;;2.70;1.10;;;20.80;69.80;;;;;;4787704;29;20396;-68
2022/06/14 12:21:57;;;;;;;4.38;1.33;;;20.90;71.50;;;;;;4788601;29;20046;-68
2022/06/14 12:27:18;;;;;;;1.88;1.10;;;21.20;69.70;;;;;;4788685;29;20047;-67
2022/06/14 12:29:47;;;;;;;3.70;1.00;;;21.20;66.20;;;;;;4806236;29;20082;-67
2022/06/14 12:32:27;;;;;;;4.28;1.30;;;21.30;68.70;;;;;;4789114;29;20054;-67
2022/06/14 12:34:58;;;;;;;2.00;1.20;;;21.30;69.50;;;;;;4787916;29;20121;-68
2022/06/14 12:37:43;;;;;;;4.35;1.33;;;21.40;69.40;;;;;;4789421;29;20610;-67
2022/06/14 12:40:47;;;;;;;3.35;0.90;;;21.60;69.20;;;;;;4803301;29;20489;-68
2022/06/14 12:43:26;;;;;;;2.92;1.08;;;21.70;64.90;;;;;;4803890;29;20046;-71
2022/06/14 12:46:15;;;;;;;1.92;0.75;;;21.90;65.20;;;;;;4804039;29;20054;-67
2022/06/14 12:48:59;;;;;;;1.77;0.95;;;22.20;62.60;;;;;;4789170;29;20457;-67
2022/06/14 12:51:35;;;;;;;4.43;0.90;;;22.50;62.40;;;;;;4790023;29;20058;-70
2022/06/14 12:54:57;;;;;;;3.25;1.40;;;22.60;62.40;;;;;;4804724;29;20042;-70
2022/06/14 12:57:40;;;;;;;2.60;1.10;;;22.60;58.20;;;;;;4750046;29;20101;-70
2022/06/14 13:00:20;;;;;;;5.95;1.30;;;22.40;60.20;;;;;;4788067;29;20094;-68
2022/06/14 13:03:03;;;;;;;2.15;0.93;;;22.00;60.60;;;;;;4788870;29;20400;-68
2022/06/14 13:05:37;;;;;;;8.65;1.85;;;21.70;61.00;;;;;;4803874;29;20137;-70
2022/06/14 13:08:14;;;;;;;2.28;0.90;;;21.80;62.70;;;;;;4789297;29;20438;-68
2022/06/14 13:11:05;;;;;;;2.50;1.00;;;22.00;61.80;;;;;;4790199;29;20465;-68
2022/06/14 13:13:40;;;;;;;2.08;0.90;;;22.00;61.80;;;;;;4788236;29;20062;-70
2022/06/14 13:16:09;;;;;;;2.88;1.23;;;22.00;60.50;;;;;;4808735;29;20063;-70
2022/06/14 13:18:53;;;;;;;1.33;0.93;;;22.00;60.90;;;;;;4809393;29;20051;-72
2022/06/14 13:21:31;;;;;;;2.08;1.20;;;21.80;61.10;;;;;;4792618;29;20378;-70
2022/06/14 13:24:28;;;;;;;3.33;1.10;;;21.60;61.10;;;;;;4805869;29;20108;-71
2022/06/14 13:27:15;;;;;;;5.05;1.10;;;21.50;60.70;;;;;;4788684;29;20051;-70
2022/06/14 13:29:44;;;;;;;2.35;1.08;;;21.30;61.30;;;;;;4793338;29;20059;-69
2022/06/14 13:32:37;;;;;;;3.03;1.40;;;21.20;61.60;;;;;;4791507;29;20075;-68
2022/06/14 13:35:15;;;;;;;3.45;1.30;;;21.00;60.90;;;;;;4806077;29;20489;-69
2022/06/14 13:37:56;;;;;;;2.88;1.52;;;20.90;61.80;;;;;;4805379;29;20069;-69
2022/06/14 13:40:42;;;;;;;1.70;0.95;;;20.90;61.70;;;;;;4804997;29;20122;-69
2022/06/14 13:43:30;;;;;;;2.33;1.23;;;20.90;62.10;;;;;;4807458;29;20099;-69
2022/06/14 13:46:05;;;;;;;2.63;1.10;;;20.90;62.90;;;;;;4788462;29;20047;-68
2022/06/14 13:48:39;;;;;;;1.98;1.00;;;21.00;62.50;;;;;;4791892;29;20134;-70
2022/06/14 13:51:31;;;;;;;2.60;1.20;;;21.10;62.50;;;;;;4792205;29;20366;-67
2022/06/14 13:54:37;;;;;;;1.58;0.93;;;21.10;61.70;;;;;;4786762;29;20773;-68
2022/06/14 13:57:23;;;;;;;5.47;1.15;;;21.00;62.50;;;;;;4729446;30;20593;-71
2022/06/14 13:59:50;;;;;;;3.55;1.17;;;21.00;62.70;;;;;;4795618;29;20043;-70
2022/06/14 14:02:29;;;;;;;3.25;1.00;;;21.00;62.80;;;;;;4799655;29;20051;-71
2022/06/14 14:05:07;;;;;;;2.92;1.00;;;21.00;63.20;;;;;;4783921;29;20426;-69
2022/06/14 14:07:48;;;;;;;2.30;1.08;;;21.10;63.40;;;;;;4765807;29;20056;-69
2022/06/14 14:10:19;;;;;;;3.88;1.08;;;21.00;62.90;;;;;;4799443;29;20530;-68
2022/06/14 14:12:54;;;;;;;3.75;1.00;;;20.90;63.40;;;;;;4799090;29;20064;-70